Time;durP1;ratioP1;P1;durP2;ratioP2;P2;SDS_P1;SDS_P2;PMS_P1;PMS_P2;Temp;Humidity;BMP_temperature;BMP_pressure;BME280_temperature;BME280_humidity;BME280_pressure;Samples;Min_cycle;Max_cycle;Signal;HPM_P1;HPM_P2
2022/07/27 00:00:56;;;;;;;2.90;1.90;;;;;;;;;;5047658;28;20465;-56
2022/07/27 00:03:22;;;;;;;6.73;1.70;;;;;;;;;;5043552;28;20197;-55
2022/07/27 00:05:48;;;;;;;3.70;2.20;;;21.10;1.00;;;;;;5036286;28;20519;-54
2022/07/27 00:08:14;;;;;;;2.13;1.90;;;;;;;;;;5047744;28;20549;-52
2022/07/27 00:10:40;;;;;;;2.40;2.03;;;21.20;1.00;;;;;;5047567;28;20613;-55
2022/07/27 00:13:05;;;;;;;5.50;2.07;;;21.10;1.00;;;;;;5048827;28;20446;-54
2022/07/27 00:15:32;;;;;;;2.17;1.90;;;21.00;1.00;;;;;;5049203;28;20192;-54
2022/07/27 00:17:59;;;;;;;2.77;1.57;;;21.00;1.00;;;;;;5045781;28;20763;-55
2022/07/27 00:20:26;;;;;;;2.00;1.73;;;21.00;1.00;;;;;;5055353;28;20436;-54
2022/07/27 00:22:53;;;;;;;1.87;1.63;;;;;;;;;;5047701;28;20457;-52
2022/07/27 00:25:19;;;;;;;2.23;1.90;;;;;;;;;;5046202;28;20481;-55
2022/07/27 00:27:44;;;;;;;3.90;1.60;;;20.70;1.00;;;;;;5048152;28;20503;-54
2022/07/27 00:30:10;;;;;;;4.07;1.60;;;20.70;1.00;;;;;;5047799;28;20537;-54
2022/07/27 00:32:36;;;;;;;2.77;2.40;;;20.80;1.00;;;;;;5047407;28;20188;-55
2022/07/27 00:35:01;;;;;;;3.30;1.70;;;;;;;;;;5045697;28;20316;-55
2022/07/27 00:37:27;;;;;;;2.00;1.90;;;;;;;;;;5047922;28;20184;-53
2022/07/27 00:39:55;;;;;;;2.37;1.77;;;20.70;1.00;;;;;;5045140;28;20468;-53
2022/07/27 00:42:26;;;;;;;2.70;2.20;;;20.60;1.00;;;;;;5042333;28;20679;-53
2022/07/27 00:44:55;;;;;;;4.07;2.23;;;20.80;1.00;;;;;;5047623;28;20474;-55
2022/07/27 00:47:22;;;;;;;2.60;1.97;;;;;;;;;;5053731;28;21030;-54
2022/07/27 00:49:47;;;;;;;2.60;2.00;;;20.50;1.00;;;;;;5050786;28;20458;-54
2022/07/27 00:52:14;;;;;;;6.47;2.13;;;20.10;1.00;;;;;;5052265;28;20446;-52
2022/07/27 00:54:44;;;;;;;3.20;2.03;;;20.30;1.00;;;;;;5051308;28;20284;-54
2022/07/27 00:57:11;;;;;;;3.57;2.33;;;20.40;1.00;;;;;;5050554;28;20482;-55
2022/07/27 00:59:37;;;;;;;2.73;1.90;;;20.30;1.00;;;;;;5048668;28;20554;-55
2022/07/27 01:02:04;;;;;;;3.17;2.60;;;20.30;1.00;;;;;;5050170;28;20607;-55
2022/07/27 01:04:30;;;;;;;5.83;2.40;;;;;;;;;;5052239;28;20196;-54
2022/07/27 01:06:56;;;;;;;5.43;2.30;;;20.20;1.00;;;;;;5050797;28;20924;-52
2022/07/27 01:12:10;;;;;;;2.97;1.90;;;20.40;1.00;;;;;;5050403;28;20191;-55
2022/07/27 01:14:38;;;;;;;3.10;1.90;;;20.30;1.00;;;;;;5050501;28;20525;-55
2022/07/27 01:17:04;;;;;;;2.27;2.07;;;;;;;;;;5051151;28;20532;-52
2022/07/27 01:19:29;;;;;;;2.30;2.10;;;;;;;;;;5047878;28;20442;-55
2022/07/27 01:21:55;;;;;;;3.07;2.30;;;20.50;1.00;;;;;;5049608;28;20461;-53
2022/07/27 01:24:21;;;;;;;3.03;2.00;;;20.30;1.00;;;;;;5050712;28;20478;-55
2022/07/27 01:26:47;;;;;;;4.17;2.33;;;20.30;1.00;;;;;;5050247;28;20334;-56
2022/07/27 01:29:13;;;;;;;2.10;1.90;;;;;;;;;;5052123;28;20188;-54
2022/07/27 01:31:39;;;;;;;4.63;2.20;;;20.40;1.00;;;;;;5048181;28;20461;-54
2022/07/27 01:34:05;;;;;;;2.50;2.20;;;;;;;;;;5051955;28;20528;-54
2022/07/27 01:36:30;;;;;;;4.07;2.37;;;19.90;1.00;;;;;;5048028;28;20207;-54
2022/07/27 01:38:56;;;;;;;3.30;2.10;;;20.30;1.00;;;;;;5050197;28;20450;-53
2022/07/27 01:41:22;;;;;;;4.10;2.17;;;;;;;;;;5051450;28;20195;-54
2022/07/27 01:43:48;;;;;;;2.73;2.30;;;;;;;;;;5051774;28;21726;-54
2022/07/27 01:46:13;;;;;;;4.80;2.67;;;20.30;1.00;;;;;;5050772;28;20990;-54
2022/07/27 01:48:39;;;;;;;2.43;2.10;;;20.10;1.00;;;;;;5050407;28;20453;-54
2022/07/27 01:51:05;;;;;;;4.60;2.57;;;20.20;1.00;;;;;;5051386;28;20215;-55
2022/07/27 01:53:31;;;;;;;2.97;2.20;;;20.00;1.00;;;;;;5049237;28;20187;-54
2022/07/27 01:55:56;;;;;;;2.20;2.00;;;20.20;1.00;;;;;;5051571;28;20294;-52
2022/07/27 01:58:22;;;;;;;2.20;2.00;;;;;;;;;;5048276;28;20202;-54
2022/07/27 02:00:49;;;;;;;3.03;2.10;;;20.30;1.00;;;;;;5047965;28;20211;-55
2022/07/27 02:03:14;;;;;;;6.57;2.57;;;20.20;1.00;;;;;;5050187;28;20804;-54
2022/07/27 02:05:40;;;;;;;2.90;2.37;;;19.80;1.00;;;;;;5047935;28;20482;-55
2022/07/27 02:08:07;;;;;;;3.43;2.30;;;20.20;1.00;;;;;;5046236;28;20192;-54
2022/07/27 02:10:34;;;;;;;3.00;2.33;;;20.40;1.00;;;;;;5051598;28;20190;-55
2022/07/27 02:12:59;;;;;;;3.97;2.10;;;20.10;1.00;;;;;;5050138;28;20460;-53
2022/07/27 02:15:27;;;;;;;3.30;1.90;;;20.30;1.00;;;;;;5050379;28;20438;-54
2022/07/27 02:17:54;;;;;;;4.13;2.60;;;20.40;1.00;;;;;;5049260;28;20198;-54
2022/07/27 02:20:22;;;;;;;3.40;2.07;;;20.30;1.00;;;;;;5047593;28;20459;-55
2022/07/27 02:22:48;;;;;;;3.53;2.37;;;;;;;;;;5051278;28;20460;-54
2022/07/27 02:25:15;;;;;;;4.13;2.53;;;20.30;1.00;;;;;;5045824;28;20882;-54
2022/07/27 02:27:42;;;;;;;2.30;2.10;;;20.20;1.00;;;;;;5053878;28;20546;-53
2022/07/27 02:30:10;;;;;;;5.90;2.70;;;20.10;1.00;;;;;;5046428;28;20485;-54
2022/07/27 02:32:35;;;;;;;4.50;2.20;;;19.90;1.00;;;;;;5046211;28;20564;-54
2022/07/27 02:35:01;;;;;;;3.07;2.50;;;20.10;1.00;;;;;;5050703;28;20556;-55
2022/07/27 02:37:26;;;;;;;3.53;2.30;;;20.10;1.00;;;;;;5047222;28;20203;-53
2022/07/27 02:39:53;;;;;;;2.93;2.30;;;;;;;;;;5050826;28;20192;-54
2022/07/27 02:42:18;;;;;;;4.63;2.77;;;20.10;1.00;;;;;;5050230;28;20206;-55
2022/07/27 02:44:44;;;;;;;2.80;2.10;;;;;;;;;;5051354;28;20470;-55
2022/07/27 02:47:10;;;;;;;4.13;2.50;;;;;;;;;;5048918;28;20195;-53
2022/07/27 02:49:36;;;;;;;2.80;2.10;;;20.10;1.00;;;;;;5045664;28;20454;-56
2022/07/27 02:52:02;;;;;;;4.70;2.87;;;20.20;1.00;;;;;;5049870;28;20442;-55
2022/07/27 02:54:31;;;;;;;3.57;2.10;;;;;;;;;;5053309;28;20184;-54
2022/07/27 02:56:59;;;;;;;4.60;2.40;;;20.00;1.00;;;;;;5049803;28;20469;-55
2022/07/27 02:59:25;;;;;;;3.33;2.10;;;19.90;1.00;;;;;;5045435;28;20963;-54
2022/07/27 03:01:50;;;;;;;4.63;3.03;;;19.80;1.00;;;;;;5047910;28;20442;-55
2022/07/27 03:04:17;;;;;;;3.87;1.93;;;19.70;1.00;;;;;;5048481;28;20769;-54
2022/07/27 03:06:43;;;;;;;3.20;2.07;;;19.80;1.00;;;;;;5047534;28;20375;-52
2022/07/27 03:09:09;;;;;;;3.57;1.80;;;19.90;1.00;;;;;;5047242;28;20466;-54
2022/07/27 03:11:34;;;;;;;7.43;2.20;;;19.90;1.00;;;;;;5048126;28;20470;-56
2022/07/27 03:14:00;;;;;;;4.23;1.70;;;19.90;1.00;;;;;;5048240;28;20191;-54
2022/07/27 03:16:26;;;;;;;3.03;2.70;;;20.40;1.00;;;;;;5060470;28;20663;-53
2022/07/27 03:18:52;;;;;;;4.60;1.80;;;19.90;1.00;;;;;;5048236;28;20502;-54
2022/07/27 03:21:18;;;;;;;5.27;2.07;;;20.10;1.00;;;;;;5045975;28;20204;-54
2022/07/27 03:23:43;;;;;;;6.20;2.03;;;20.10;1.00;;;;;;5047654;28;20235;-55
2022/07/27 03:26:09;;;;;;;4.97;2.33;;;;;;;;;;5048167;28;20607;-55
2022/07/27 03:28:35;;;;;;;1.90;1.40;;;20.30;1.00;;;;;;5048292;28;20191;-56
2022/07/27 03:31:02;;;;;;;3.97;1.80;;;;;;;;;;5054237;28;20442;-53
2022/07/27 03:33:28;;;;;;;2.30;1.60;;;;;;;;;;5047088;28;20208;-54
2022/07/27 03:35:54;;;;;;;2.73;1.63;;;;;;;;;;5048261;28;20978;-55
2022/07/27 03:38:21;;;;;;;3.40;1.77;;;20.10;1.00;;;;;;5049483;28;20457;-55
2022/07/27 03:40:47;;;;;;;3.00;1.77;;;;;;;;;;5049454;28;20464;-55
2022/07/27 03:43:13;;;;;;;4.20;1.67;;;;;;;;;;5049730;28;20442;-55
2022/07/27 03:45:39;;;;;;;5.10;1.87;;;20.20;1.00;;;;;;5050270;28;20974;-55
2022/07/27 03:48:06;;;;;;;4.43;1.50;;;;;;;;;;5047530;28;20450;-54
2022/07/27 03:50:32;;;;;;;2.93;1.73;;;;;;;;;;5048889;28;20184;-54
2022/07/27 03:52:57;;;;;;;2.70;1.20;;;20.30;1.00;;;;;;5048587;28;20461;-55
2022/07/27 03:55:24;;;;;;;2.67;1.33;;;;;;;;;;5046842;28;20453;-55
2022/07/27 03:57:51;;;;;;;2.50;1.80;;;20.20;1.00;;;;;;5047755;28;20192;-54
2022/07/27 04:00:17;;;;;;;6.37;1.60;;;19.90;1.00;;;;;;5048685;28;20477;-53
2022/07/27 04:02:43;;;;;;;3.00;2.00;;;;;;;;;;5048367;28;20457;-56
2022/07/27 04:05:10;;;;;;;3.30;1.33;;;20.00;1.00;;;;;;5048339;28;20462;-53
2022/07/27 04:07:35;;;;;;;3.73;1.80;;;20.10;1.00;;;;;;5047270;28;20453;-54
2022/07/27 04:10:02;;;;;;;1.73;1.10;;;19.60;1.00;;;;;;5047141;28;20450;-52
2022/07/27 04:12:28;;;;;;;5.00;1.73;;;;;;;;;;5047731;28;20514;-54
2022/07/27 04:14:53;;;;;;;4.83;1.83;;;19.80;1.00;;;;;;5048802;28;20446;-54
2022/07/27 04:17:19;;;;;;;3.93;1.70;;;;;;;;;;5046359;28;20503;-52
2022/07/27 04:19:45;;;;;;;2.27;1.50;;;;;;;;;;5048126;28;20198;-52
2022/07/27 04:22:11;;;;;;;3.27;2.00;;;;;;;;;;5048300;28;20484;-54
2022/07/27 04:24:37;;;;;;;2.30;1.53;;;20.00;1.00;;;;;;5047427;28;20450;-54
2022/07/27 04:27:02;;;;;;;3.90;1.60;;;19.90;1.00;;;;;;5049759;28;20946;-53
2022/07/27 04:29:28;;;;;;;3.63;1.50;;;;;;;;;;5048209;28;20267;-53
2022/07/27 04:31:54;;;;;;;5.83;1.50;;;19.70;1.00;;;;;;5048649;28;20588;-52
2022/07/27 04:34:20;;;;;;;3.70;1.53;;;19.50;1.00;;;;;;5046664;28;20504;-54
2022/07/27 04:36:46;;;;;;;5.53;1.67;;;;;;;;;;5047508;28;20199;-53
2022/07/27 04:39:12;;;;;;;2.57;1.57;;;;;;;;;;5047471;28;20558;-54
2022/07/27 04:41:37;;;;;;;6.23;1.80;;;20.10;1.00;;;;;;5049440;28;20789;-54
2022/07/27 04:44:03;;;;;;;5.40;2.20;;;20.20;1.00;;;;;;5051056;28;20507;-54
2022/07/27 04:46:29;;;;;;;4.50;1.60;;;20.10;1.00;;;;;;5049094;28;20696;-51
2022/07/27 04:48:54;;;;;;;4.30;1.67;;;20.20;1.00;;;;;;5046409;28;20293;-52
2022/07/27 04:51:20;;;;;;;5.67;1.70;;;20.20;1.00;;;;;;5059919;28;20231;-52
2022/07/27 04:53:46;;;;;;;4.93;1.50;;;;;;;;;;5047942;28;20207;-54
2022/07/27 04:56:12;;;;;;;2.40;1.30;;;;;;;;;;5049094;28;20653;-54
2022/07/27 04:58:38;;;;;;;2.33;1.57;;;;;;;;;;5049574;28;20553;-53
2022/07/27 05:01:09;;;;;;;6.17;1.60;;;20.20;1.00;;;;;;5047526;28;20557;-54
2022/07/27 05:03:35;;;;;;;3.40;1.50;;;;;;;;;;5045896;28;20442;-54
2022/07/27 05:06:01;;;;;;;5.27;1.70;;;;;;;;;;5047829;28;20462;-54
2022/07/27 05:08:27;;;;;;;3.07;1.60;;;20.30;1.00;;;;;;5048258;28;20859;-53
2022/07/27 05:10:53;;;;;;;3.50;1.50;;;;;;;;;;5048518;28;20454;-54
2022/07/27 05:13:19;;;;;;;4.57;1.47;;;20.00;1.00;;;;;;5047521;28;20192;-54
2022/07/27 05:15:45;;;;;;;6.50;1.60;;;;;;;;;;5048045;28;20978;-53
2022/07/27 05:18:11;;;;;;;4.87;1.60;;;;;;;;;;5048867;28;20200;-53
2022/07/27 05:20:36;;;;;;;3.27;1.10;;;20.10;1.00;;;;;;5047398;28;20454;-55
2022/07/27 05:23:02;;;;;;;3.57;1.73;;;20.20;1.00;;;;;;5056074;28;20450;-54
2022/07/27 05:25:28;;;;;;;4.30;1.60;;;;;;;;;;5048645;28;20656;-54
2022/07/27 05:27:53;;;;;;;5.77;1.57;;;20.00;1.00;;;;;;5047397;28;20244;-55
2022/07/27 05:30:20;;;;;;;6.40;1.70;;;20.00;1.00;;;;;;5052073;28;20456;-53
2022/07/27 05:32:46;;;;;;;3.10;1.53;;;20.20;1.00;;;;;;5052589;28;20206;-55
2022/07/27 05:35:12;;;;;;;7.40;2.20;;;20.20;1.00;;;;;;5044843;28;20840;-54
2022/07/27 05:37:38;;;;;;;2.23;1.20;;;;;;;;;;5050208;28;20460;-54
2022/07/27 05:40:06;;;;;;;2.43;1.30;;;20.30;1.00;;;;;;5051316;28;20203;-54
2022/07/27 05:42:32;;;;;;;2.97;1.30;;;;;;;;;;5051764;28;20465;-55
2022/07/27 05:44:58;;;;;;;4.23;1.20;;;;;;;;;;5052394;28;20462;-55
2022/07/27 05:47:24;;;;;;;3.10;1.50;;;;;;;;;;5051495;28;20965;-54
2022/07/27 05:49:49;;;;;;;4.83;1.83;;;20.50;1.00;;;;;;5050356;28;20501;-55
2022/07/27 05:52:15;;;;;;;5.17;1.20;;;;;;;;;;5049282;28;20481;-54
2022/07/27 05:54:42;;;;;;;3.60;1.17;;;;;;;;;;5051104;28;20188;-55
2022/07/27 05:57:08;;;;;;;4.07;1.30;;;;;;;;;;5049825;28;20461;-54
2022/07/27 05:59:35;;;;;;;4.97;1.53;;;;;;;;;;5051020;28;20981;-54
2022/07/27 06:02:02;;;;;;;3.03;1.60;;;20.80;1.00;;;;;;5050704;28;20454;-53
2022/07/27 06:04:28;;;;;;;3.30;1.23;;;20.70;1.00;;;;;;5050126;28;20944;-54
2022/07/27 06:09:38;;;;;;;3.20;1.03;;;20.60;1.00;;;;;;5049684;28;20192;-54
2022/07/27 06:12:04;;;;;;;4.60;2.20;;;20.70;1.00;;;;;;5052054;28;20939;-54
2022/07/27 06:14:31;;;;;;;4.00;2.00;;;;;;;;;;5050989;28;20259;-54
2022/07/27 06:16:57;;;;;;;3.93;1.27;;;20.90;1.00;;;;;;5050779;28;20434;-54
2022/07/27 06:19:22;;;;;;;4.57;0.90;;;21.00;1.00;;;;;;5049703;28;20984;-55
2022/07/27 06:21:48;;;;;;;2.67;1.60;;;21.00;1.00;;;;;;5049292;28;20188;-53
2022/07/27 06:24:15;;;;;;;2.13;1.10;;;;;;;;;;5049829;28;20208;-53
2022/07/27 06:26:41;;;;;;;4.87;1.47;;;21.10;1.00;;;;;;5048957;28;20257;-52
2022/07/27 06:29:07;;;;;;;5.40;1.80;;;;;;;;;;5081192;28;21187;-54
2022/07/27 06:31:33;;;;;;;2.90;1.50;;;;;;;;;;5051622;28;20185;-52
2022/07/27 06:33:58;;;;;;;4.00;1.43;;;20.80;1.00;;;;;;5049849;28;20462;-54
2022/07/27 06:36:24;;;;;;;5.20;1.93;;;20.70;1.00;;;;;;5048041;28;20958;-52
2022/07/27 06:38:50;;;;;;;8.23;1.57;;;20.60;1.00;;;;;;5049990;28;20188;-54
2022/07/27 06:41:16;;;;;;;5.13;1.87;;;;;;;;;;5051593;28;20423;-54
2022/07/27 06:43:42;;;;;;;3.17;1.23;;;;;;;;;;5050475;28;20661;-53
2022/07/27 06:46:11;;;;;;;4.07;1.60;;;20.70;1.00;;;;;;5050216;28;20835;-53
2022/07/27 06:48:40;;;;;;;5.40;1.40;;;20.90;1.00;;;;;;5050233;28;20442;-53
2022/07/27 06:51:06;;;;;;;1.77;1.20;;;20.90;1.00;;;;;;5048842;28;20446;-54
2022/07/27 06:53:32;;;;;;;5.90;1.57;;;21.00;1.00;;;;;;5050192;28;20458;-55
2022/07/27 06:56:02;;;;;;;5.87;2.23;;;21.30;1.00;;;;;;5058294;28;20985;-55
2022/07/27 06:58:31;;;;;;;3.37;1.70;;;21.40;1.00;;;;;;5049061;28;20555;-54
2022/07/27 07:01:00;;;;;;;3.60;1.50;;;;;;;;;;5050999;28;20446;-54
2022/07/27 07:03:30;;;;;;;3.93;1.30;;;21.60;1.00;;;;;;5050510;28;20537;-54
2022/07/27 07:05:56;;;;;;;3.27;1.37;;;21.30;1.00;;;;;;5048640;28;21500;-54
2022/07/27 07:08:22;;;;;;;4.20;1.47;;;;;;;;;;5049810;28;20504;-54
2022/07/27 07:10:49;;;;;;;2.50;1.50;;;21.50;1.00;;;;;;5049659;28;20422;-55
2022/07/27 07:13:14;;;;;;;8.63;1.53;;;21.40;1.00;;;;;;5048687;28;20446;-54
2022/07/27 07:15:42;;;;;;;3.60;1.10;;;21.50;1.00;;;;;;5050814;28;20542;-55
2022/07/27 07:18:11;;;;;;;4.30;1.20;;;21.40;1.00;;;;;;5048216;28;20200;-55
2022/07/27 07:20:37;;;;;;;3.60;1.30;;;21.50;1.00;;;;;;5048318;28;20442;-56
2022/07/27 07:23:03;;;;;;;3.10;1.50;;;22.00;1.00;;;;;;5062929;28;20960;-54
2022/07/27 07:25:29;;;;;;;6.70;1.30;;;22.30;1.00;;;;;;5050260;28;20476;-55
2022/07/27 07:27:55;;;;;;;4.13;1.10;;;22.50;1.00;;;;;;5049763;28;20459;-56
2022/07/27 07:30:22;;;;;;;2.40;1.30;;;22.60;1.00;;;;;;5050615;28;20446;-54
2022/07/27 07:32:48;;;;;;;1.90;1.27;;;;;;;;;;5061113;28;20458;-53
2022/07/27 07:35:14;;;;;;;4.67;1.23;;;22.60;1.00;;;;;;5049235;28;20482;-54
2022/07/27 07:37:39;;;;;;;2.30;1.10;;;22.50;1.00;;;;;;5047726;28;20454;-53
2022/07/27 07:40:06;;;;;;;4.40;0.97;;;22.60;1.00;;;;;;5050395;28;20505;-54
2022/07/27 07:42:44;;;;;;;2.80;1.20;;;22.60;1.00;;;;;;5050277;28;20191;-55
2022/07/27 07:45:09;;;;;;;3.23;1.50;;;22.90;1.00;;;;;;5048957;28;20505;-53
2022/07/27 07:47:35;;;;;;;1.50;1.07;;;;;;;;;;5050002;28;20550;-54
2022/07/27 07:50:01;;;;;;;2.63;1.10;;;22.70;1.00;;;;;;5049913;28;20231;-54
2022/07/27 07:52:27;;;;;;;4.70;1.10;;;;;;;;;;5054192;28;20486;-52
2022/07/27 07:54:53;;;;;;;5.73;1.30;;;;;;;;;;5058252;28;20267;-54
2022/07/27 07:57:18;;;;;;;3.40;1.13;;;22.80;1.00;;;;;;5050005;28;20454;-52
2022/07/27 07:59:44;;;;;;;4.10;1.40;;;22.80;1.00;;;;;;5049956;28;20466;-53
2022/07/27 08:02:09;;;;;;;5.03;1.27;;;22.80;1.00;;;;;;5048330;28;20188;-53
2022/07/27 08:04:35;;;;;;;2.70;1.23;;;;;;;;;;5049769;28;20369;-54
2022/07/27 08:07:04;;;;;;;4.13;1.07;;;;;;;;;;5050271;28;20183;-55
2022/07/27 08:09:30;;;;;;;2.37;0.90;;;22.30;1.00;;;;;;5049941;28;20434;-53
2022/07/27 08:11:56;;;;;;;1.83;0.80;;;21.90;1.00;;;;;;5062674;28;20465;-54
2022/07/27 08:14:22;;;;;;;2.40;1.43;;;21.80;1.00;;;;;;5050092;28;20172;-55
2022/07/27 08:16:48;;;;;;;2.33;1.30;;;21.70;1.00;;;;;;5049803;28;20546;-54
2022/07/27 08:19:14;;;;;;;1.17;0.87;;;;;;;;;;5049719;28;20473;-54
2022/07/27 08:21:39;;;;;;;3.20;0.93;;;21.60;1.00;;;;;;5051210;28;20218;-56
2022/07/27 08:24:06;;;;;;;3.67;1.37;;;;;;;;;;5069551;28;20942;-55
2022/07/27 08:26:32;;;;;;;2.70;1.20;;;;;;;;;;5069513;28;20227;-55
2022/07/27 08:28:57;;;;;;;2.37;1.10;;;21.60;1.00;;;;;;5069607;28;20511;-55
2022/07/27 08:31:23;;;;;;;3.57;1.30;;;21.80;1.00;;;;;;5069922;28;20509;-55
2022/07/27 08:33:48;;;;;;;5.97;1.23;;;22.10;1.00;;;;;;5069388;28;20208;-54
2022/07/27 08:36:14;;;;;;;4.13;1.20;;;22.30;1.00;;;;;;5064762;28;20254;-55
2022/07/27 08:38:40;;;;;;;2.87;1.10;;;22.50;1.00;;;;;;5049658;28;20553;-55
2022/07/27 08:41:07;;;;;;;4.80;1.63;;;22.30;1.00;;;;;;5064788;28;20188;-55
2022/07/27 08:43:33;;;;;;;5.00;1.60;;;;;;;;;;5069637;28;20179;-54
2022/07/27 08:46:00;;;;;;;3.67;1.20;;;22.60;1.00;;;;;;5057358;28;20485;-54
2022/07/27 08:48:27;;;;;;;2.80;0.90;;;22.70;1.00;;;;;;5049556;28;20844;-52
2022/07/27 08:50:54;;;;;;;2.47;1.00;;;22.30;1.00;;;;;;5049544;28;20488;-53
2022/07/27 08:53:21;;;;;;;1.50;0.70;;;21.90;1.00;;;;;;5049201;28;20831;-54
2022/07/27 08:55:47;;;;;;;5.93;0.93;;;21.70;1.00;;;;;;5053354;28;20483;-55
2022/07/27 08:58:14;;;;;;;8.77;2.70;;;22.10;1.00;;;;;;5069286;28;20491;-54
2022/07/27 09:00:42;;;;;;;4.93;1.97;;;22.10;1.00;;;;;;5050811;28;20855;-54
2022/07/27 09:03:13;;;;;;;3.20;1.60;;;22.30;1.00;;;;;;5052113;28;20935;-54
2022/07/27 09:05:45;;;;;;;3.93;1.30;;;25.40;1.00;;;;;;5049408;28;20912;-56
2022/07/27 09:08:17;;;;;;;2.70;1.20;;;22.70;1.00;;;;;;5049317;28;20458;-57
2022/07/27 09:10:43;;;;;;;2.73;0.90;;;22.30;1.00;;;;;;5051107;28;20445;-54
2022/07/27 09:13:29;;;;;;;5.03;1.17;;;22.70;1.00;;;;;;5053069;28;20441;-53
2022/07/27 09:16:15;;;;;;;3.07;1.10;;;22.70;1.00;;;;;;5052856;28;20437;-55
2022/07/27 09:18:40;;;;;;;3.00;1.10;;;22.80;1.00;;;;;;5051808;28;20450;-55
2022/07/27 09:21:20;;;;;;;5.17;1.10;;;22.90;1.00;;;;;;5052545;28;20461;-53
2022/07/27 09:23:54;;;;;;;7.23;1.80;;;23.10;1.00;;;;;;5052518;28;20199;-54
2022/07/27 09:26:22;;;;;;;2.67;1.30;;;23.30;1.00;;;;;;5072245;28;20952;-55
2022/07/27 09:28:53;;;;;;;3.80;1.23;;;23.10;1.00;;;;;;5055384;28;20440;-55
2022/07/27 09:31:20;;;;;;;6.63;1.50;;;;;;;;;;5053351;28;20434;-55
2022/07/27 09:33:48;;;;;;;3.60;1.27;;;22.80;1.00;;;;;;5053648;28;20438;-55
2022/07/27 09:36:15;;;;;;;3.40;1.00;;;23.00;1.00;;;;;;5051575;28;20957;-53
2022/07/27 09:38:58;;;;;;;6.10;1.30;;;23.00;1.00;;;;;;5050881;28;20450;-55
2022/07/27 09:41:25;;;;;;;2.10;1.27;;;23.10;1.00;;;;;;5052423;28;20991;-53
2022/07/27 09:43:53;;;;;;;3.90;1.10;;;23.10;1.00;;;;;;5050920;28;20548;-53
2022/07/27 09:46:33;;;;;;;4.10;1.03;;;22.90;1.00;;;;;;5061812;28;20663;-53
2022/07/27 09:48:59;;;;;;;2.93;1.10;;;23.00;1.00;;;;;;5054989;28;20453;-55
2022/07/27 09:51:26;;;;;;;4.80;1.17;;;;;;;;;;5052282;28;20533;-55
2022/07/27 09:53:53;;;;;;;1.40;0.87;;;22.80;1.00;;;;;;5052170;28;20541;-54
2022/07/27 09:56:29;;;;;;;3.83;1.73;;;22.70;1.00;;;;;;5050358;28;20454;-53
2022/07/27 09:58:57;;;;;;;1.60;0.90;;;22.70;1.00;;;;;;5051568;28;20533;-55
2022/07/27 10:01:33;;;;;;;3.33;0.93;;;23.00;1.00;;;;;;5052528;28;20493;-54
2022/07/27 10:04:01;;;;;;;3.00;1.07;;;23.40;1.00;;;;;;5052088;28;20537;-54
2022/07/27 10:06:28;;;;;;;2.33;0.70;;;23.80;1.00;;;;;;5051893;28;20466;-53
2022/07/27 10:08:55;;;;;;;1.77;0.90;;;24.30;1.00;;;;;;5051895;28;20537;-55
2022/07/27 10:11:22;;;;;;;2.57;1.00;;;24.80;1.00;;;;;;5052051;28;20430;-54
2022/07/27 10:13:49;;;;;;;3.10;1.27;;;24.80;1.00;;;;;;5051637;28;20611;-55
2022/07/27 10:16:23;;;;;;;1.60;1.00;;;24.40;1.00;;;;;;5051993;28;20892;-54
2022/07/27 10:19:16;;;;;;;2.13;0.80;;;23.70;1.00;;;;;;5051740;28;20445;-56
2022/07/27 10:21:45;;;;;;;2.40;0.60;;;24.00;1.00;;;;;;5051655;28;20438;-54
2022/07/27 10:24:33;;;;;;;3.30;1.47;;;24.40;1.00;;;;;;5051895;28;21590;-54
2022/07/27 10:27:17;;;;;;;2.80;1.13;;;24.40;1.00;;;;;;5051541;28;20994;-54
2022/07/27 10:29:43;;;;;;;1.60;1.13;;;;;;;;;;5051659;28;20495;-53
2022/07/27 10:32:09;;;;;;;2.60;0.80;;;24.30;1.00;;;;;;5051482;28;20412;-54
2022/07/27 10:34:42;;;;;;;2.30;0.77;;;23.90;1.00;;;;;;5047355;28;20462;-54
2022/07/27 10:37:28;;;;;;;1.80;0.87;;;23.70;1.00;;;;;;5051410;28;20211;-54
2022/07/27 10:42:45;;;;;;;2.33;0.80;;;23.80;1.00;;;;;;5051498;28;20476;-55
2022/07/27 10:45:16;;;;;;;3.57;1.40;;;23.70;1.00;;;;;;5051139;28;20473;-54
2022/07/27 10:47:47;;;;;;;3.47;1.00;;;23.70;1.00;;;;;;5050082;28;20454;-55
2022/07/27 10:50:15;;;;;;;3.33;1.10;;;24.10;1.00;;;;;;5050867;28;20451;-54
2022/07/27 10:52:45;;;;;;;2.97;1.00;;;24.10;1.00;;;;;;5050705;28;20437;-54
2022/07/27 10:55:28;;;;;;;4.83;1.23;;;24.10;1.00;;;;;;5050779;28;20446;-53
2022/07/27 10:58:01;;;;;;;3.40;1.33;;;24.30;1.00;;;;;;5050911;28;20417;-54
2022/07/27 11:00:48;;;;;;;4.07;1.73;;;24.50;1.00;;;;;;5051055;28;20435;-55
2022/07/27 11:03:38;;;;;;;2.07;1.20;;;24.70;1.00;;;;;;5050773;28;20438;-56
2022/07/27 11:06:11;;;;;;;5.80;1.53;;;24.60;1.00;;;;;;5050032;28;20458;-54
2022/07/27 11:08:45;;;;;;;3.50;1.20;;;24.50;1.00;;;;;;5048895;28;20435;-53
2022/07/27 11:11:19;;;;;;;6.50;1.60;;;24.30;1.00;;;;;;5050915;28;20957;-54
2022/07/27 11:13:48;;;;;;;4.30;1.47;;;24.50;1.00;;;;;;5050914;28;20437;-55
2022/07/27 11:16:15;;;;;;;3.73;1.40;;;;;;;;;;5058221;28;20477;-56
2022/07/27 11:18:42;;;;;;;3.43;1.60;;;24.80;1.00;;;;;;5067086;28;20549;-55
2022/07/27 11:21:20;;;;;;;2.50;1.60;;;24.70;1.00;;;;;;5050910;28;20768;-55
2022/07/27 11:24:08;;;;;;;5.03;1.73;;;24.30;1.00;;;;;;5050719;28;20430;-55
2022/07/27 11:26:40;;;;;;;5.10;2.13;;;24.40;1.00;;;;;;5050197;28;20449;-54
2022/07/27 11:29:07;;;;;;;4.63;1.87;;;24.40;1.00;;;;;;5050605;28;20560;-55
2022/07/27 11:31:34;;;;;;;4.20;1.23;;;24.60;1.00;;;;;;5050206;28;20409;-53
2022/07/27 11:34:00;;;;;;;4.27;1.40;;;;;;;;;;5049729;28;20467;-55
2022/07/27 11:36:41;;;;;;;4.63;1.70;;;25.00;1.00;;;;;;5050005;28;20441;-54
2022/07/27 11:39:12;;;;;;;4.33;0.80;;;24.80;1.00;;;;;;5062361;28;20516;-55
2022/07/27 11:41:39;;;;;;;4.50;1.40;;;24.90;1.00;;;;;;5070096;28;20444;-54
2022/07/27 11:44:11;;;;;;;2.50;1.30;;;25.00;1.00;;;;;;5070284;28;20438;-53
2022/07/27 11:46:44;;;;;;;2.70;1.10;;;24.50;1.00;;;;;;5050301;28;20437;-55
2022/07/27 11:49:15;;;;;;;2.63;1.03;;;24.10;1.00;;;;;;5050021;28;20478;-55
2022/07/27 11:51:45;;;;;;;3.43;1.10;;;24.00;1.00;;;;;;5050193;28;20438;-53
2022/07/27 11:54:22;;;;;;;5.07;1.27;;;23.90;1.00;;;;;;5049161;28;20814;-54
2022/07/27 11:56:51;;;;;;;2.57;0.97;;;23.90;1.00;;;;;;5049925;28;20446;-54
2022/07/27 11:59:19;;;;;;;2.50;0.80;;;24.00;1.00;;;;;;5049734;28;20450;-53
2022/07/27 12:01:53;;;;;;;3.63;1.33;;;23.80;1.00;;;;;;5050311;28;20514;-55
2022/07/27 12:04:30;;;;;;;2.20;1.00;;;24.00;1.00;;;;;;5055139;28;20450;-54
2022/07/27 12:07:01;;;;;;;1.77;1.00;;;23.90;1.00;;;;;;5050194;28;20771;-55
2022/07/27 12:09:28;;;;;;;3.57;1.17;;;23.80;1.00;;;;;;5048399;28;20446;-54
2022/07/27 12:11:57;;;;;;;2.97;1.10;;;23.80;1.00;;;;;;5060486;28;20596;-54
2022/07/27 12:14:29;;;;;;;3.07;1.73;;;23.90;1.00;;;;;;5052580;28;20438;-53
2022/07/27 12:17:30;;;;;;;3.00;1.13;;;23.80;1.00;;;;;;5048862;28;20432;-54
2022/07/27 12:20:13;;;;;;;5.30;1.10;;;24.30;1.00;;;;;;5049795;28;20871;-55
2022/07/27 12:22:42;;;;;;;2.37;1.33;;;24.60;1.00;;;;;;5048891;28;20497;-52
2022/07/27 12:25:17;;;;;;;3.60;1.50;;;24.60;1.00;;;;;;5049196;28;20939;-55
2022/07/27 12:28:04;;;;;;;2.23;0.87;;;24.80;1.00;;;;;;5048703;28;20422;-55
2022/07/27 12:30:45;;;;;;;1.67;0.97;;;24.80;1.00;;;;;;5049671;28;20417;-54
2022/07/27 12:33:28;;;;;;;1.63;1.10;;;24.50;1.00;;;;;;5048679;28;21180;-54
2022/07/27 12:35:54;;;;;;;2.70;0.90;;;;;;;;;;5047416;28;20531;-55
2022/07/27 12:38:20;;;;;;;4.77;1.00;;;;;;;;;;5049676;28;20890;-54
2022/07/27 12:40:48;;;;;;;1.97;0.93;;;23.70;1.00;;;;;;5050067;28;20465;-55
2022/07/27 12:43:20;;;;;;;1.77;1.00;;;24.10;1.00;;;;;;5049193;28;20444;-54
2022/07/27 12:45:47;;;;;;;2.67;1.10;;;24.40;1.00;;;;;;5053160;28;20474;-54
2022/07/27 12:48:14;;;;;;;3.70;1.07;;;;;;;;;;5051776;28;20447;-53
2022/07/27 12:50:41;;;;;;;2.20;1.30;;;24.60;1.00;;;;;;5052983;28;20422;-54
2022/07/27 12:53:08;;;;;;;2.80;1.00;;;24.10;1.00;;;;;;5050816;28;20413;-56
2022/07/27 12:55:35;;;;;;;2.00;0.80;;;24.00;1.00;;;;;;5053508;28;20436;-55
2022/07/27 12:58:01;;;;;;;4.20;1.80;;;23.50;1.00;;;;;;5052019;28;20451;-56
2022/07/27 13:00:30;;;;;;;2.90;1.27;;;23.70;1.00;;;;;;5053273;28;20430;-55
2022/07/27 13:02:58;;;;;;;2.57;1.30;;;23.80;1.00;;;;;;5052818;28;20421;-54
2022/07/27 13:05:23;;;;;;;2.30;1.00;;;23.80;1.00;;;;;;5051382;28;20544;-55
2022/07/27 13:07:49;;;;;;;1.80;0.97;;;24.00;1.00;;;;;;5058733;28;20467;-54
2022/07/27 13:10:18;;;;;;;3.23;1.20;;;23.90;1.00;;;;;;5058577;28;20641;-54
2022/07/27 13:12:45;;;;;;;3.50;1.37;;;24.00;1.00;;;;;;5053224;28;20224;-55
2022/07/27 13:15:11;;;;;;;2.27;1.20;;;24.20;1.00;;;;;;5052207;28;20807;-54
2022/07/27 13:17:37;;;;;;;3.90;1.10;;;;;;;;;;5052353;28;20447;-55
2022/07/27 13:20:06;;;;;;;3.07;0.90;;;23.90;1.00;;;;;;5053767;28;20675;-55
2022/07/27 13:22:33;;;;;;;4.10;1.20;;;24.10;1.00;;;;;;5072705;28;20794;-54
2022/07/27 13:24:59;;;;;;;2.93;1.20;;;24.10;1.00;;;;;;5062681;28;20590;-54
2022/07/27 13:27:25;;;;;;;3.43;1.90;;;;;;;;;;5058889;28;20520;-55
2022/07/27 13:29:51;;;;;;;5.80;1.57;;;;;;;;;;5072842;28;20187;-54
2022/07/27 13:32:17;;;;;;;2.60;1.20;;;;;;;;;;5061441;28;20434;-53
2022/07/27 13:34:43;;;;;;;2.40;0.90;;;;;;;;;;5064952;28;20462;-54